Huvudsida
METAR-TAF:

METAR-TAF

Flygplatser :

Khon Kaen, Thailand

latitud: 16-26N, longitud: 102-50E, höjd: 165 m

Aktuellt väderrapport

Denna rapport gjordes för 27 minuter sedan, klockan 20:00 UTC
Vind 3 kt från syd
Temperatur 26°C
Fuktighet 100%
Tryck 1009 hPa
Sikt 10 km eller mer
Få moln på en höjd av 3000 ft
Spridda moln på en höjd av 10000 ft

METAR: VTUK 252000Z 17003KT 9999 FEW030 SCT100 26/26 Q1009 NOSIG

Tid: 03:27 (20:27 UTC)

Väderprognos

Denna rapport gjordes för 3 timmar och 27 minuter sedan, klockan 17:00 UTC
Prognos gäller från 25 kl. 18 UTC till 26 kl. 18 UTC
Vind 5 kt från ost
Sikt: 9000 m
Spridda moln på en höjd av 2500 ft
Temporärt
från 26 kl. 08 UTC till 26 kl. 14 UTC
Vind 15 kt varierande vindriktning
Sikt: 4000 m
Få moln på en höjd av 1800 ft, Cumulonimbus.
Brutna moln på en höjd av 2500 ft
Brutna moln på en höjd av 8000 ft
åska, regn,

TAF: VTUK 251700Z 2518/2618 08005KT 9000 SCT025 TEMPO 2608/2614 VRB15KT 4000 TSRA FEW018CB BKN025 BKN080

Aktuella väderrapporter och prognoser från 4000 flygplatser (METAR- och TAF-rapporter).

De tillgängliga stationerna syns som gula och röda prickar på kartan.

För musen över prickarna för att se namnen på stationerna.

Klicka sedan för att få väderrapporter och prognoser.

För att ändra kartan: Klicka på de gröna knapparna med ett svart kors på för att zooma in; den gröna knappen med ett streck på för att zooma ut; eller på de gröna pilarna för angränsande kartor.


METAR-TAF: